createdAt,value
2019-05-11T00:00:32.419Z,99606.04
2019-05-11T00:03:01.107Z,99590.47
2019-05-11T00:05:29.536Z,99587.65
2019-05-11T00:07:57.963Z,99586.80
2019-05-11T00:10:26.430Z,99580.94
2019-05-11T00:12:54.855Z,99580.38
2019-05-11T00:15:23.283Z,99575.95
2019-05-11T00:17:51.739Z,99577.14
2019-05-11T00:20:20.175Z,99575.41
2019-05-11T00:22:48.598Z,99570.90
2019-05-11T00:25:17.068Z,99561.41
2019-05-11T00:27:45.475Z,99569.49
2019-05-11T00:30:14.650Z,99556.83
2019-05-11T00:32:43.121Z,99555.89
2019-05-11T00:35:11.768Z,99545.42
2019-05-11T00:37:40.204Z,99542.88
2019-05-11T00:40:14.288Z,99549.65
2019-05-11T00:42:39.681Z,99540.20
2019-05-11T00:45:08.283Z,99547.03
2019-05-11T00:47:36.738Z,99531.50
2019-05-11T00:50:08.349Z,99523.86
2019-05-11T00:52:36.863Z,99506.34
2019-05-11T00:55:07.010Z,99492.85
2019-05-11T00:57:35.492Z,99489.06
2019-05-11T01:00:05.461Z,99494.39
2019-05-11T01:02:34.078Z,99496.23
2019-05-11T01:05:02.532Z,99499.84
2019-05-11T01:07:31.118Z,99500.58
2019-05-11T01:09:59.569Z,99494.00
2019-05-11T01:12:28.112Z,99493.77
2019-05-11T01:14:56.533Z,99489.84
2019-05-11T01:17:24.988Z,99495.17
2019-05-11T01:19:53.999Z,99492.91
2019-05-11T01:22:22.427Z,99496.20
2019-05-11T01:24:50.920Z,99499.84
2019-05-11T01:27:19.422Z,99497.34
2019-05-11T01:29:47.851Z,99491.22
2019-05-11T01:32:16.299Z,99491.25
2019-05-11T01:34:44.795Z,99485.45
2019-05-11T01:37:13.226Z,99475.86
2019-05-11T01:39:41.747Z,99464.06
2019-05-11T01:42:10.174Z,99452.55
2019-05-11T01:44:38.599Z,99458.53
2019-05-11T01:47:07.148Z,99457.41
2019-05-11T01:49:35.577Z,99453.84
2019-05-11T01:52:04.089Z,99463.08
2019-05-11T01:54:32.555Z,99455.43
2019-05-11T01:57:00.991Z,99455.80
2019-05-11T01:59:29.425Z,99452.52
2019-05-11T02:01:57.898Z,99445.22
2019-05-11T02:04:26.336Z,99444.02
2019-05-11T02:06:54.760Z,99431.64
2019-05-11T02:09:23.227Z,99421.22
2019-05-11T02:11:51.670Z,99421.21
2019-05-11T02:14:20.104Z,99429.11
2019-05-11T02:16:48.641Z,99424.20
2019-05-11T02:19:17.073Z,99428.56
2019-05-11T02:21:45.507Z,99421.56
2019-05-11T02:24:14.087Z,99419.01
2019-05-11T02:26:42.592Z,99414.45
2019-05-11T02:29:11.028Z,99410.45
2019-05-11T02:31:39.506Z,99396.23
2019-05-11T02:34:07.949Z,99396.45
2019-05-11T02:36:36.382Z,99391.50
2019-05-11T02:39:07.158Z,99389.33
2019-05-11T02:41:37.442Z,99387.66
2019-05-11T02:44:06.354Z,99377.34
2019-05-11T02:46:34.980Z,99358.13
2019-05-11T02:49:03.690Z,99335.42
2019-05-11T02:51:32.392Z,99329.08
2019-05-11T02:54:02.423Z,99331.92
2019-05-11T02:56:30.931Z,99315.53
2019-05-11T02:58:59.343Z,99303.91
2019-05-11T03:01:27.936Z,99300.09
2019-05-11T03:03:56.372Z,99302.25
2019-05-11T03:06:24.943Z,99310.08
2019-05-11T03:08:53.541Z,99318.80
2019-05-11T03:11:21.974Z,99321.82
2019-05-11T03:13:50.479Z,99326.55
2019-05-11T03:16:19.005Z,99326.53
2019-05-11T03:18:47.454Z,99323.32
2019-05-11T03:21:15.873Z,99312.12
2019-05-11T03:23:44.398Z,99304.39
2019-05-11T03:26:12.823Z,99310.73
2019-05-11T03:28:41.263Z,99303.06
2019-05-11T03:31:09.811Z,99295.45
2019-05-11T03:33:38.249Z,99287.89
2019-05-11T03:36:06.678Z,99290.38
2019-05-11T03:38:35.139Z,99282.33
2019-05-11T03:41:03.644Z,99289.20
2019-05-11T03:43:32.085Z,99291.03
2019-05-11T03:46:00.697Z,99288.70
2019-05-11T03:48:29.131Z,99297.13
2019-05-11T03:50:57.570Z,99293.51
2019-05-11T03:53:26.077Z,99298.42
2019-05-11T03:55:54.555Z,99296.78
2019-05-11T03:58:26.334Z,99297.74
2019-05-11T04:00:53.337Z,99286.31
2019-05-11T04:03:21.792Z,99293.63
2019-05-11T04:05:50.302Z,99299.22
2019-05-11T04:08:18.749Z,99302.73
2019-05-11T04:10:47.210Z,99310.29
2019-05-11T04:13:15.604Z,99301.02
2019-05-11T04:15:44.200Z,99304.73
2019-05-11T04:18:12.678Z,99303.80
2019-05-11T04:20:41.108Z,99306.07
2019-05-11T04:23:09.588Z,99308.89
2019-05-11T04:25:38.015Z,99298.36
2019-05-11T04:28:06.736Z,99287.52
2019-05-11T04:30:35.195Z,99275.47
2019-05-11T04:33:03.679Z,99278.80
2019-05-11T04:35:32.100Z,99276.83
2019-05-11T04:38:00.565Z,99282.65
2019-05-11T04:40:29.561Z,99294.83
2019-05-11T04:42:57.989Z,99296.14
2019-05-11T04:45:26.609Z,99291.35
2019-05-11T04:47:55.047Z,99304.14
2019-05-11T04:50:23.462Z,99302.78
2019-05-11T04:52:52.052Z,99301.95
2019-05-11T04:55:20.477Z,99299.28
2019-05-11T04:57:48.906Z,99286.38
2019-05-11T05:00:17.536Z,99278.09
2019-05-11T05:02:46.152Z,99273.62
2019-05-11T05:05:14.804Z,99283.48
2019-05-11T05:07:49.350Z,99283.84
2019-05-11T05:10:19.360Z,99295.16
2019-05-11T05:12:50.486Z,99295.03
2019-05-11T05:15:14.301Z,99289.09
2019-05-11T05:17:42.758Z,99286.34
2019-05-11T05:20:11.423Z,99289.48
2019-05-11T05:22:39.880Z,99294.68
2019-05-11T05:25:08.750Z,99291.46
2019-05-11T05:27:37.172Z,99307.05
2019-05-11T05:30:07.254Z,99307.52
2019-05-11T05:32:35.902Z,99303.41
2019-05-11T05:35:05.899Z,99297.30
2019-05-11T05:37:34.352Z,99305.41
2019-05-11T05:40:02.848Z,99305.22
2019-05-11T05:42:31.270Z,99298.91
2019-05-11T05:44:59.735Z,99304.50
2019-05-11T05:47:28.159Z,99306.80
2019-05-11T05:49:56.590Z,99307.70
2019-05-11T05:52:25.290Z,99300.20
2019-05-11T05:54:53.724Z,99298.24
2019-05-11T05:57:22.163Z,99298.09
2019-05-11T05:59:50.768Z,99290.96
2019-05-11T06:02:19.202Z,99278.44
2019-05-11T06:04:47.627Z,99279.19
2019-05-11T06:07:16.197Z,99279.11
2019-05-11T06:09:44.625Z,99279.97
2019-05-11T06:12:13.125Z,99277.55
2019-05-11T06:14:41.607Z,99277.73
2019-05-11T06:17:10.075Z,99277.19
2019-05-11T06:19:38.603Z,99288.95
2019-05-11T06:22:07.036Z,99293.56
2019-05-11T06:24:35.484Z,99278.20
2019-05-11T06:27:03.986Z,99272.66
2019-05-11T06:29:32.509Z,99265.31
2019-05-11T06:32:00.936Z,99270.19
2019-05-11T06:34:29.361Z,99285.27
2019-05-11T06:36:57.886Z,99291.61
2019-05-11T06:39:26.907Z,99282.36
2019-05-11T06:41:55.338Z,99268.09
2019-05-11T06:44:23.847Z,99269.85
2019-05-11T06:46:52.370Z,99271.31
2019-05-11T06:49:20.787Z,99283.06
2019-05-11T06:51:49.231Z,99291.94
2019-05-11T06:54:17.765Z,99298.74
2019-05-11T06:56:46.225Z,99297.23
2019-05-11T06:59:14.751Z,99297.19
2019-05-11T07:01:43.266Z,99298.66
2019-05-11T07:04:11.793Z,99302.27
2019-05-11T07:06:40.268Z,99307.27
2019-05-11T07:09:08.958Z,99310.72
2019-05-11T07:11:37.424Z,99316.59
2019-05-11T07:14:20.008Z,99320.61
2019-05-11T07:16:36.526Z,99324.92
2019-05-11T07:19:05.023Z,99312.78
2019-05-11T07:21:33.724Z,99309.01
2019-05-11T07:24:02.153Z,99309.01
2019-05-11T07:26:30.588Z,99313.64
2019-05-11T07:28:59.065Z,99312.52
2019-05-11T07:31:27.564Z,99322.84
2019-05-11T07:33:56.000Z,99322.39
2019-05-11T07:36:24.458Z,99321.08
2019-05-11T07:38:52.884Z,99321.92
2019-05-11T07:41:21.306Z,99317.38
2019-05-11T07:43:49.759Z,99308.44
2019-05-11T07:46:18.370Z,99309.70
2019-05-11T07:48:47.953Z,99312.94
2019-05-11T07:51:18.289Z,99317.48
2019-05-11T07:53:48.642Z,99303.82
2019-05-11T07:56:18.694Z,99306.64
2019-05-11T07:58:48.080Z,99312.70
2019-05-11T08:01:18.934Z,99309.15
2019-05-11T08:03:48.258Z,99323.39
2019-05-11T08:06:18.241Z,99318.02
2019-05-11T08:08:49.042Z,99329.28
2019-05-11T08:11:18.268Z,99326.31
2019-05-11T08:13:48.053Z,99336.12
2019-05-11T08:16:18.578Z,99338.70
2019-05-11T08:18:48.151Z,99344.36
2019-05-11T08:21:17.862Z,99342.16
2019-05-11T08:23:48.323Z,99351.03
2019-05-11T08:26:18.794Z,99349.14
2019-05-11T08:28:48.602Z,99349.34
2019-05-11T08:31:18.660Z,99359.06
2019-05-11T08:33:47.993Z,99358.75
2019-05-11T08:36:18.336Z,99357.93
2019-05-11T08:38:48.280Z,99362.92
2019-05-11T08:41:18.410Z,99359.91
2019-05-11T08:43:48.076Z,99360.95
2019-05-11T08:46:18.513Z,99361.72
2019-05-11T08:48:47.861Z,99367.16
2019-05-11T08:51:18.736Z,99368.13
2019-05-11T08:53:48.065Z,99370.70
2019-05-11T08:56:18.683Z,99374.37
2019-05-11T08:58:49.120Z,99383.88
2019-05-11T09:01:18.319Z,99384.81
2019-05-11T09:03:47.817Z,99390.12
2019-05-11T09:06:17.925Z,99393.98
2019-05-11T09:08:49.104Z,99405.11
2019-05-11T09:11:18.810Z,99410.20
2019-05-11T09:13:48.862Z,99409.20
2019-05-11T09:16:18.981Z,99412.01
2019-05-11T09:18:48.027Z,99422.04
2019-05-11T09:21:19.083Z,99430.19
2019-05-11T09:23:48.542Z,99433.11
2019-05-11T09:26:18.131Z,99445.28
2019-05-11T09:28:47.563Z,99443.16
2019-05-11T09:31:18.602Z,99449.19
2019-05-11T09:33:47.972Z,99456.73
2019-05-11T09:36:18.065Z,99455.75
2019-05-11T09:38:48.759Z,99462.28
2019-05-11T09:41:18.018Z,99468.19
2019-05-11T09:43:48.352Z,99473.52
2019-05-11T09:46:18.914Z,99475.88
2019-05-11T09:48:48.373Z,99479.72
2019-05-11T09:51:18.438Z,99489.92
2019-05-11T09:53:48.217Z,99492.80
2019-05-11T09:56:18.303Z,99485.58
2019-05-11T09:58:47.954Z,99491.03
2019-05-11T10:01:18.289Z,99499.83
2019-05-11T10:03:48.150Z,99506.80
2019-05-11T10:06:19.011Z,99500.97
2019-05-11T10:08:48.623Z,99495.41
2019-05-11T10:11:18.917Z,99490.30
2019-05-11T10:13:47.937Z,99489.75
2019-05-11T10:16:17.902Z,99504.02
2019-05-11T10:18:48.919Z,99504.48
2019-05-11T10:21:18.837Z,99505.42
2019-05-11T10:23:49.036Z,99506.03
2019-05-11T10:26:18.814Z,99513.22
2019-05-11T10:28:48.121Z,99514.38
2019-05-11T10:31:18.003Z,99517.66
2019-05-11T10:33:48.918Z,99512.86
2019-05-11T10:36:18.871Z,99515.41
2019-05-11T10:38:48.719Z,99519.31
2019-05-11T10:41:18.335Z,99521.05
2019-05-11T10:43:49.006Z,99535.23
2019-05-11T10:46:23.090Z,99539.86
2019-05-11T10:48:48.311Z,99542.78
2019-05-11T10:51:18.386Z,99543.30
2019-05-11T10:53:51.327Z,99548.48
2019-05-11T10:56:17.988Z,99548.74
2019-05-11T10:58:48.306Z,99554.19
2019-05-11T11:01:18.106Z,99555.41
2019-05-11T11:03:48.424Z,99565.75
2019-05-11T11:06:18.866Z,99576.67
2019-05-11T11:08:48.862Z,99581.16
2019-05-11T11:11:18.570Z,99588.03
2019-05-11T11:13:48.321Z,99588.68
2019-05-11T11:16:32.694Z,99595.89
2019-05-11T11:18:48.646Z,99597.63
2019-05-11T11:21:22.545Z,99606.31
2019-05-11T11:23:48.209Z,99610.49
2019-05-11T11:26:18.422Z,99614.81
2019-05-11T11:28:47.714Z,99621.75
2019-05-11T11:31:18.741Z,99618.16
2019-05-11T11:33:48.880Z,99627.88
2019-05-11T11:36:17.970Z,99628.20
2019-05-11T11:38:47.868Z,99633.60
2019-05-11T11:41:18.597Z,99642.22
2019-05-11T11:43:48.390Z,99646.75
2019-05-11T11:46:18.717Z,99647.88
2019-05-11T11:48:48.781Z,99656.81
2019-05-11T11:51:18.809Z,99645.36
2019-05-11T11:53:47.947Z,99651.42
2019-05-11T11:56:18.880Z,99661.47
2019-05-11T11:58:48.732Z,99666.23
2019-05-11T12:01:18.996Z,99676.33
2019-05-11T12:03:48.811Z,99682.36
2019-05-11T12:06:18.300Z,99682.21
2019-05-11T12:08:49.696Z,99683.37
2019-05-11T12:11:18.790Z,99692.48
2019-05-11T12:13:47.764Z,99700.01
2019-05-11T12:16:18.021Z,99712.80
2019-05-11T12:18:48.626Z,99717.58
2019-05-11T12:21:18.522Z,99717.67
2019-05-11T12:23:48.586Z,99725.64
2019-05-11T12:26:18.525Z,99736.66
2019-05-11T12:28:49.055Z,99740.64
2019-05-11T12:31:18.491Z,99731.14
2019-05-11T12:33:48.410Z,99734.45
2019-05-11T12:36:18.842Z,99737.56
2019-05-11T12:38:48.856Z,99746.55
2019-05-11T12:41:18.977Z,99754.09
2019-05-11T12:43:48.920Z,99759.05
2019-05-11T12:46:18.890Z,99755.97
2019-05-11T12:48:48.451Z,99773.01
2019-05-11T12:51:18.614Z,99770.95
2019-05-11T12:53:47.757Z,99785.02
2019-05-11T12:56:18.753Z,99781.48
2019-05-11T12:58:48.952Z,99791.15
2019-05-11T13:01:18.735Z,99797.09
2019-05-11T13:03:49.214Z,99797.00
2019-05-11T13:06:19.341Z,99794.90
2019-05-11T13:08:48.345Z,99815.75
2019-05-11T13:11:18.683Z,99825.42
2019-05-11T13:13:48.433Z,99825.70
2019-05-11T13:16:18.388Z,99827.30
2019-05-11T13:18:48.714Z,99841.19
2019-05-11T13:21:18.285Z,99850.96
2019-05-11T13:23:48.931Z,99854.22
2019-05-11T13:26:17.990Z,99863.27
2019-05-11T13:28:48.362Z,99871.51
2019-05-11T13:31:18.731Z,99878.56
2019-05-11T13:33:47.990Z,99879.20
2019-05-11T13:36:18.583Z,99879.33
2019-05-11T13:38:48.389Z,99889.38
2019-05-11T13:41:18.763Z,99897.31
2019-05-11T13:43:48.597Z,99891.31
2019-05-11T13:46:17.924Z,99897.45
2019-05-11T13:48:47.632Z,99904.56
2019-05-11T13:51:18.302Z,99918.69
2019-05-11T13:53:48.199Z,99915.49
2019-05-11T13:56:18.380Z,99914.55
2019-05-11T13:58:48.874Z,99928.38
2019-05-11T14:01:18.528Z,99936.83
2019-05-11T14:03:48.381Z,99941.78
2019-05-11T14:06:18.454Z,99946.23
2019-05-11T14:08:48.236Z,99956.22
2019-05-11T14:11:18.176Z,99965.66
2019-05-11T14:13:47.988Z,99969.06
2019-05-11T14:16:18.581Z,99978.23
2019-05-11T14:18:48.839Z,99973.39
2019-05-11T14:21:18.576Z,99981.72
2019-05-11T14:23:48.368Z,99986.18
2019-05-11T14:26:19.254Z,99993.89
2019-05-11T14:28:48.104Z,99997.67
2019-05-11T14:31:18.878Z,100005.30
2019-05-11T14:33:48.926Z,100008.83
2019-05-11T14:36:18.430Z,100009.91
2019-05-11T14:38:48.671Z,100019.67
2019-05-11T14:41:18.236Z,100023.81
2019-05-11T14:43:49.031Z,100030.59
2019-05-11T14:46:18.131Z,100039.23
2019-05-11T14:48:48.112Z,100045.99
2019-05-11T14:51:18.011Z,100056.18
2019-05-11T14:53:48.158Z,100063.70
2019-05-11T14:56:18.998Z,100072.59
2019-05-11T14:58:49.010Z,100072.88
2019-05-11T15:01:18.297Z,100079.86
2019-05-11T15:03:48.557Z,100088.05
2019-05-11T15:06:18.808Z,100090.48
2019-05-11T15:08:47.898Z,100087.83
2019-05-11T15:11:18.897Z,100095.64
2019-05-11T15:13:48.734Z,100098.50
2019-05-11T15:16:18.786Z,100101.94
2019-05-11T15:18:48.438Z,100109.15
2019-05-11T15:21:18.907Z,100114.84
2019-05-11T15:23:47.786Z,100113.72
2019-05-11T15:26:18.729Z,100113.63
2019-05-11T15:28:48.545Z,100123.30
2019-05-11T15:31:21.938Z,100127.06
2019-05-11T15:33:48.820Z,100131.92
2019-05-11T15:36:19.299Z,100131.70
2019-05-11T15:38:48.268Z,100133.86
2019-05-11T15:41:17.772Z,100141.53
2019-05-11T15:43:48.050Z,100153.78
2019-05-11T15:46:19.403Z,100156.87
2019-05-11T15:48:58.464Z,100161.95
2019-05-11T15:51:18.724Z,100161.91
2019-05-11T15:53:47.655Z,100163.73
2019-05-11T15:56:19.015Z,100165.91
2019-05-11T15:58:48.630Z,100169.41
2019-05-11T16:01:18.543Z,100175.23
2019-05-11T16:03:49.916Z,100188.38
2019-05-11T16:06:18.578Z,100191.04
2019-05-11T16:08:47.492Z,100194.74
2019-05-11T16:11:18.001Z,100198.59
2019-05-11T16:13:48.325Z,100206.53
2019-05-11T16:16:16.304Z,100210.16
2019-05-11T16:18:44.762Z,100207.98
2019-05-11T16:21:13.189Z,100216.29
2019-05-11T16:23:41.700Z,100226.91
2019-05-11T16:26:10.323Z,100233.75
2019-05-11T16:28:38.757Z,100230.10
2019-05-11T16:31:09.125Z,100236.23
2019-05-11T16:33:37.556Z,100229.83
2019-05-11T16:36:08.795Z,100229.88
2019-05-11T16:38:38.021Z,100237.87
2019-05-11T16:41:08.971Z,100238.55
2019-05-11T16:43:38.551Z,100244.34
2019-05-11T16:46:08.729Z,100250.03
2019-05-11T16:48:38.277Z,100254.11
2019-05-11T16:51:08.669Z,100255.77
2019-05-11T16:53:38.983Z,100254.14
2019-05-11T16:56:08.433Z,100260.75
2019-05-11T16:58:38.037Z,100265.52
2019-05-11T17:01:08.644Z,100274.59
2019-05-11T17:03:38.433Z,100273.30
2019-05-11T17:06:08.337Z,100283.55
2019-05-11T17:08:38.374Z,100277.13
2019-05-11T17:11:08.204Z,100287.39
2019-05-11T17:13:37.982Z,100285.69
2019-05-11T17:16:08.596Z,100301.16
2019-05-11T17:18:36.978Z,100308.11
2019-05-11T17:21:07.732Z,100326.20
2019-05-11T17:23:38.105Z,100330.28
2019-05-11T17:26:08.490Z,100344.56
2019-05-11T17:28:38.408Z,100352.91
2019-05-11T17:31:08.071Z,100361.20
2019-05-11T17:33:38.480Z,100372.69
2019-05-11T17:36:08.431Z,100374.59
2019-05-11T17:38:38.917Z,100388.61
2019-05-11T17:41:08.493Z,100396.13
2019-05-11T17:43:38.699Z,100405.12
2019-05-11T17:46:08.040Z,100411.85
2019-05-11T17:48:38.785Z,100412.14
2019-05-11T17:51:20.900Z,100411.28
2019-05-11T17:53:37.845Z,100428.20
2019-05-11T17:56:06.503Z,100440.06
2019-05-11T17:58:37.688Z,100440.66
2019-05-11T18:01:05.358Z,100446.97
2019-05-11T18:03:33.880Z,100448.36
2019-05-11T18:06:02.332Z,100453.98
2019-05-11T18:08:31.148Z,100456.36
2019-05-11T18:10:59.836Z,100468.13
2019-05-11T18:13:28.607Z,100471.42
2019-05-11T18:15:57.844Z,100474.45
2019-05-11T18:18:28.918Z,100471.88
2019-05-11T18:20:57.891Z,100486.39
2019-05-11T18:23:28.209Z,100494.91
2019-05-11T18:25:57.056Z,100501.58
2019-05-11T18:28:25.549Z,100511.78
2019-05-11T18:30:54.115Z,100516.11
2019-05-11T18:33:22.635Z,100518.09
2019-05-11T18:35:51.132Z,100529.27
2019-05-11T18:38:19.570Z,100534.34
2019-05-11T18:40:48.653Z,100542.92
2019-05-11T18:43:18.856Z,100549.00
2019-05-11T18:45:48.877Z,100546.09
2019-05-11T18:48:18.565Z,100558.08
2019-05-11T18:50:49.119Z,100568.83
2019-05-11T18:53:18.687Z,100581.55
2019-05-11T18:55:48.601Z,100587.64
2019-05-11T18:58:18.406Z,100591.09
2019-05-11T19:00:48.824Z,100602.70
2019-05-11T19:03:19.342Z,100611.66
2019-05-11T19:05:48.180Z,100630.59
2019-05-11T19:08:18.766Z,100642.98
2019-05-11T19:10:48.878Z,100650.97
2019-05-11T19:13:17.025Z,100648.11
2019-05-11T19:15:45.454Z,100648.20
2019-05-11T19:18:14.128Z,100655.28
2019-05-11T19:20:45.856Z,100668.97
2019-05-11T19:23:12.709Z,100670.00
2019-05-11T19:25:41.196Z,100673.92
2019-05-11T19:28:09.668Z,100682.66
2019-05-11T19:30:38.404Z,100682.28
2019-05-11T19:33:09.679Z,100680.56
2019-05-11T19:35:37.870Z,100683.55
2019-05-11T19:38:08.501Z,100695.50
2019-05-11T19:40:38.407Z,100703.10
2019-05-11T19:43:08.190Z,100708.64
2019-05-11T19:45:38.367Z,100714.05
2019-05-11T19:48:08.370Z,100722.16
2019-05-11T19:50:38.206Z,100730.91
2019-05-11T19:53:08.395Z,100734.96
2019-05-11T19:55:37.185Z,100739.59
2019-05-11T19:58:05.650Z,100742.72
2019-05-11T20:00:34.078Z,100742.68
2019-05-11T20:03:02.605Z,100751.05
2019-05-11T20:05:31.369Z,100741.98
2019-05-11T20:07:59.919Z,100748.59
2019-05-11T20:10:28.621Z,100754.22
2019-05-11T20:12:58.741Z,100751.80
2019-05-11T20:15:27.200Z,100753.34
2019-05-11T20:17:55.743Z,100751.94
2019-05-11T20:20:24.178Z,100760.19
2019-05-11T20:22:52.618Z,100754.56
2019-05-11T20:25:21.091Z,100756.38
2019-05-11T20:27:49.530Z,100762.82
2019-05-11T20:30:19.124Z,100776.39
2019-05-11T20:32:48.829Z,100781.41
2019-05-11T20:35:17.975Z,100786.78
2019-05-11T20:37:46.516Z,100784.08
2019-05-11T20:40:18.219Z,100787.41
2019-05-11T20:42:48.297Z,100779.89
2019-05-11T20:45:18.519Z,100785.76
2019-05-11T20:47:48.675Z,100792.52
2019-05-11T20:50:18.393Z,100798.42
2019-05-11T20:52:48.007Z,100796.55
2019-05-11T20:55:18.261Z,100802.09
2019-05-11T20:57:48.274Z,100796.88
2019-05-11T21:00:18.721Z,100800.83
2019-05-11T21:02:48.665Z,100806.81
2019-05-11T21:05:18.204Z,100804.19
2019-05-11T21:07:46.920Z,100805.70
2019-05-11T21:10:15.556Z,100808.28
2019-05-11T21:12:43.989Z,100813.12
2019-05-11T21:15:12.870Z,100815.42
2019-05-11T21:17:41.350Z,100815.36
2019-05-11T21:20:10.326Z,100818.23
2019-05-11T21:22:40.645Z,100817.40
2019-05-11T21:25:09.947Z,100816.54
2019-05-11T21:27:38.836Z,100820.72
2019-05-11T21:30:11.000Z,100821.19
2019-05-11T21:32:40.991Z,100826.02
2019-05-11T21:35:09.615Z,100829.26
2019-05-11T21:37:39.024Z,100834.52
2019-05-11T21:40:09.008Z,100836.87
2019-05-11T21:42:39.042Z,100835.56
2019-05-11T21:45:09.772Z,100836.92
2019-05-11T21:47:39.256Z,100839.64
2019-05-11T21:50:09.341Z,100840.91
2019-05-11T21:52:38.632Z,100843.25
2019-05-11T21:55:09.800Z,100859.56
2019-05-11T21:57:38.522Z,100868.84
2019-05-11T22:00:09.991Z,100856.99
2019-05-11T22:02:39.120Z,100857.57
2019-05-11T22:05:09.130Z,100869.91
2019-05-11T22:07:38.818Z,100867.23
2019-05-11T22:10:09.441Z,100871.20
2019-05-11T22:12:39.107Z,100882.14
2019-05-11T22:15:09.278Z,100882.16
2019-05-11T22:17:39.246Z,100876.06
2019-05-11T22:20:08.935Z,100887.55
2019-05-11T22:22:39.070Z,100880.11
2019-05-11T22:25:08.874Z,100876.20
2019-05-11T22:27:38.907Z,100890.33
2019-05-11T22:30:08.708Z,100891.20
2019-05-11T22:32:38.330Z,100900.52
2019-05-11T22:35:10.183Z,100907.95
2019-05-11T22:37:39.203Z,100918.55
2019-05-11T22:40:08.876Z,100920.72
2019-05-11T22:42:37.827Z,100930.48
2019-05-11T22:45:09.623Z,100925.23
2019-05-11T22:47:39.262Z,100926.42
2019-05-11T22:50:10.070Z,100927.39
2019-05-11T22:52:40.536Z,100933.98
2019-05-11T22:55:11.856Z,100939.26
2019-05-11T22:57:40.029Z,100941.50
2019-05-11T23:00:12.042Z,100951.66
2019-05-11T23:02:40.528Z,100953.40
2019-05-11T23:05:09.705Z,100963.98
2019-05-11T23:07:41.340Z,100963.95
2019-05-11T23:10:10.617Z,100961.77
2019-05-11T23:12:39.129Z,100960.88
2019-05-11T23:15:10.132Z,100970.58
2019-05-11T23:17:38.962Z,100974.54
2019-05-11T23:20:08.377Z,100971.92
2019-05-11T23:22:51.310Z,100974.55
2019-05-11T23:25:08.745Z,100977.61
2019-05-11T23:27:39.339Z,100979.39
2019-05-11T23:30:08.833Z,100984.66
2019-05-11T23:32:37.665Z,100990.38
2019-05-11T23:35:09.533Z,100989.50
2019-05-11T23:37:38.688Z,100992.13
2019-05-11T23:40:09.637Z,100994.34
2019-05-11T23:42:38.381Z,101000.96
2019-05-11T23:45:08.580Z,101002.27
2019-05-11T23:47:39.269Z,101004.90
2019-05-11T23:50:08.636Z,101003.59
2019-05-11T23:52:38.226Z,100999.16
2019-05-11T23:55:08.501Z,101007.94
2019-05-11T23:57:37.981Z,101014.48
